sensor_id;sensor_type;location;lat;lon;timestamp;temperature;humidity
21216;DHT22;10765;50.954;5.322;2023-07-13T00:01:35;15.80;99.90
21216;DHT22;10765;50.954;5.322;2023-07-13T00:04:04;15.80;99.90
21216;DHT22;10765;50.954;5.322;2023-07-13T00:06:31;15.70;99.90
21216;DHT22;10765;50.954;5.322;2023-07-13T00:08:58;15.60;99.90
21216;DHT22;10765;50.954;5.322;2023-07-13T00:11:26;15.50;99.90
21216;DHT22;10765;50.954;5.322;2023-07-13T00:13:53;15.40;99.90
21216;DHT22;10765;50.954;5.322;2023-07-13T00:16:20;15.50;1.00
21216;DHT22;10765;50.954;5.322;2023-07-13T00:18:47;15.50;99.90
21216;DHT22;10765;50.954;5.322;2023-07-13T00:21:14;15.40;1.00
21216;DHT22;10765;50.954;5.322;2023-07-13T00:23:42;15.30;1.00
21216;DHT22;10765;50.954;5.322;2023-07-13T00:26:11;15.30;1.00
21216;DHT22;10765;50.954;5.322;2023-07-13T00:28:40;15.20;1.00
21216;DHT22;10765;50.954;5.322;2023-07-13T00:31:08;15.30;1.00
21216;DHT22;10765;50.954;5.322;2023-07-13T00:33:35;15.20;1.00
21216;DHT22;10765;50.954;5.322;2023-07-13T00:36:03;15.10;1.00
21216;DHT22;10765;50.954;5.322;2023-07-13T00:38:30;15.10;1.00
21216;DHT22;10765;50.954;5.322;2023-07-13T00:40:58;15.10;1.00
21216;DHT22;10765;50.954;5.322;2023-07-13T00:43:27;15.10;1.00
21216;DHT22;10765;50.954;5.322;2023-07-13T00:46:23;15.10;1.00
21216;DHT22;10765;50.954;5.322;2023-07-13T00:48:51;15.00;1.00
21216;DHT22;10765;50.954;5.322;2023-07-13T00:51:24;15.00;1.00
21216;DHT22;10765;50.954;5.322;2023-07-13T00:53:53;15.00;1.00
21216;DHT22;10765;50.954;5.322;2023-07-13T00:56:20;15.00;1.00
21216;DHT22;10765;50.954;5.322;2023-07-13T00:58:47;15.00;1.00
21216;DHT22;10765;50.954;5.322;2023-07-13T01:01:17;15.00;80.50
21216;DHT22;10765;50.954;5.322;2023-07-13T01:03:44;15.00;99.90
21216;DHT22;10765;50.954;5.322;2023-07-13T01:06:12;15.00;55.60
21216;DHT22;10765;50.954;5.322;2023-07-13T01:08:39;15.00;99.90
21216;DHT22;10765;50.954;5.322;2023-07-13T01:11:06;14.90;96.80
21216;DHT22;10765;50.954;5.322;2023-07-13T01:13:34;14.90;99.90
21216;DHT22;10765;50.954;5.322;2023-07-13T01:16:05;15.00;99.90
21216;DHT22;10765;50.954;5.322;2023-07-13T01:18:40;14.90;99.90
21216;DHT22;10765;50.954;5.322;2023-07-13T01:21:08;14.90;99.90
21216;DHT22;10765;50.954;5.322;2023-07-13T01:23:35;14.90;99.90
21216;DHT22;10765;50.954;5.322;2023-07-13T01:26:02;14.80;99.90
21216;DHT22;10765;50.954;5.322;2023-07-13T01:28:29;14.80;1.00
21216;DHT22;10765;50.954;5.322;2023-07-13T01:30:58;14.80;1.00
21216;DHT22;10765;50.954;5.322;2023-07-13T01:33:25;14.80;1.00
21216;DHT22;10765;50.954;5.322;2023-07-13T01:35:52;14.70;1.00
21216;DHT22;10765;50.954;5.322;2023-07-13T01:38:22;14.70;1.00
21216;DHT22;10765;50.954;5.322;2023-07-13T01:40:49;14.70;1.00
21216;DHT22;10765;50.954;5.322;2023-07-13T01:43:17;14.70;99.90
21216;DHT22;10765;50.954;5.322;2023-07-13T01:45:44;14.70;1.00
21216;DHT22;10765;50.954;5.322;2023-07-13T01:48:11;14.60;99.90
21216;DHT22;10765;50.954;5.322;2023-07-13T01:50:38;14.60;99.90
21216;DHT22;10765;50.954;5.322;2023-07-13T01:53:05;14.60;99.90
21216;DHT22;10765;50.954;5.322;2023-07-13T01:55:34;14.60;1.00
21216;DHT22;10765;50.954;5.322;2023-07-13T01:58:02;14.60;99.90
21216;DHT22;10765;50.954;5.322;2023-07-13T02:00:30;14.70;99.90
21216;DHT22;10765;50.954;5.322;2023-07-13T02:02:57;14.60;90.40
21216;DHT22;10765;50.954;5.322;2023-07-13T02:05:24;14.60;99.90
21216;DHT22;10765;50.954;5.322;2023-07-13T02:07:51;14.60;99.90
21216;DHT22;10765;50.954;5.322;2023-07-13T02:10:18;14.50;99.90
21216;DHT22;10765;50.954;5.322;2023-07-13T02:12:49;14.50;1.00
21216;DHT22;10765;50.954;5.322;2023-07-13T02:15:16;14.50;1.00
21216;DHT22;10765;50.954;5.322;2023-07-13T02:17:44;14.50;1.00
21216;DHT22;10765;50.954;5.322;2023-07-13T02:20:11;14.50;1.00
21216;DHT22;10765;50.954;5.322;2023-07-13T02:22:37;14.60;1.00
21216;DHT22;10765;50.954;5.322;2023-07-13T02:25:05;14.60;1.00
21216;DHT22;10765;50.954;5.322;2023-07-13T02:27:32;14.60;99.90
21216;DHT22;10765;50.954;5.322;2023-07-13T02:30:00;14.50;1.00
21216;DHT22;10765;50.954;5.322;2023-07-13T02:32:28;14.50;99.90
21216;DHT22;10765;50.954;5.322;2023-07-13T02:34:55;14.40;1.00
21216;DHT22;10765;50.954;5.322;2023-07-13T02:37:22;14.40;50.10
21216;DHT22;10765;50.954;5.322;2023-07-13T02:39:49;14.30;1.00
21216;DHT22;10765;50.954;5.322;2023-07-13T02:42:16;14.30;99.90
21216;DHT22;10765;50.954;5.322;2023-07-13T02:44:43;14.30;1.00
21216;DHT22;10765;50.954;5.322;2023-07-13T02:47:11;14.30;99.90
21216;DHT22;10765;50.954;5.322;2023-07-13T02:49:38;14.30;99.90
21216;DHT22;10765;50.954;5.322;2023-07-13T02:52:05;14.30;99.90
21216;DHT22;10765;50.954;5.322;2023-07-13T02:54:32;14.30;99.90
21216;DHT22;10765;50.954;5.322;2023-07-13T02:56:59;14.30;99.90
21216;DHT22;10765;50.954;5.322;2023-07-13T02:59:26;14.30;1.00
21216;DHT22;10765;50.954;5.322;2023-07-13T03:01:53;14.20;98.20
21216;DHT22;10765;50.954;5.322;2023-07-13T03:04:21;14.10;1.00
21216;DHT22;10765;50.954;5.322;2023-07-13T03:06:48;14.10;99.90
21216;DHT22;10765;50.954;5.322;2023-07-13T03:09:15;14.20;99.90
21216;DHT22;10765;50.954;5.322;2023-07-13T03:11:42;14.30;1.00
21216;DHT22;10765;50.954;5.322;2023-07-13T03:14:09;14.40;1.00
21216;DHT22;10765;50.954;5.322;2023-07-13T03:16:36;14.50;1.00
21216;DHT22;10765;50.954;5.322;2023-07-13T03:19:03;14.50;42.20
21216;DHT22;10765;50.954;5.322;2023-07-13T03:21:31;14.50;1.00
21216;DHT22;10765;50.954;5.322;2023-07-13T03:23:58;14.50;1.00
21216;DHT22;10765;50.954;5.322;2023-07-13T03:26:25;14.50;1.00
21216;DHT22;10765;50.954;5.322;2023-07-13T03:28:52;14.40;99.90
21216;DHT22;10765;50.954;5.322;2023-07-13T03:31:22;14.40;1.00
21216;DHT22;10765;50.954;5.322;2023-07-13T03:33:50;14.30;67.10
21216;DHT22;10765;50.954;5.322;2023-07-13T03:36:20;14.30;99.90
21216;DHT22;10765;50.954;5.322;2023-07-13T03:38:50;14.30;99.90
21216;DHT22;10765;50.954;5.322;2023-07-13T03:41:18;14.30;99.90
21216;DHT22;10765;50.954;5.322;2023-07-13T03:43:45;14.40;99.90
21216;DHT22;10765;50.954;5.322;2023-07-13T03:46:13;14.50;99.90
21216;DHT22;10765;50.954;5.322;2023-07-13T03:48:41;14.50;1.00
21216;DHT22;10765;50.954;5.322;2023-07-13T03:51:09;14.70;1.00
21216;DHT22;10765;50.954;5.322;2023-07-13T03:53:38;14.90;1.00
21216;DHT22;10765;50.954;5.322;2023-07-13T03:56:08;15.00;99.90
21216;DHT22;10765;50.954;5.322;2023-07-13T03:58:37;15.10;1.00
21216;DHT22;10765;50.954;5.322;2023-07-13T04:01:06;15.20;1.00
21216;DHT22;10765;50.954;5.322;2023-07-13T04:03:34;15.20;1.00
21216;DHT22;10765;50.954;5.322;2023-07-13T04:06:02;15.20;1.00
21216;DHT22;10765;50.954;5.322;2023-07-13T04:08:32;15.20;99.90
21216;DHT22;10765;50.954;5.322;2023-07-13T04:11:00;15.30;99.90
21216;DHT22;10765;50.954;5.322;2023-07-13T04:13:28;15.40;99.90
21216;DHT22;10765;50.954;5.322;2023-07-13T04:15:55;15.50;1.00
21216;DHT22;10765;50.954;5.322;2023-07-13T04:18:23;15.50;1.00
21216;DHT22;10765;50.954;5.322;2023-07-13T04:20:50;15.50;1.00
21216;DHT22;10765;50.954;5.322;2023-07-13T04:23:18;15.60;1.00
21216;DHT22;10765;50.954;5.322;2023-07-13T04:25:46;15.60;99.90
21216;DHT22;10765;50.954;5.322;2023-07-13T04:28:15;15.70;1.00
21216;DHT22;10765;50.954;5.322;2023-07-13T04:30:44;15.80;99.90
21216;DHT22;10765;50.954;5.322;2023-07-13T04:33:11;15.80;99.90
21216;DHT22;10765;50.954;5.322;2023-07-13T04:35:38;15.80;42.70
21216;DHT22;10765;50.954;5.322;2023-07-13T04:38:05;15.80;99.90
21216;DHT22;10765;50.954;5.322;2023-07-13T04:40:32;15.80;99.90
21216;DHT22;10765;50.954;5.322;2023-07-13T04:42:59;16.00;1.00
21216;DHT22;10765;50.954;5.322;2023-07-13T04:45:26;16.10;1.00
21216;DHT22;10765;50.954;5.322;2023-07-13T04:47:54;16.20;99.90
21216;DHT22;10765;50.954;5.322;2023-07-13T04:50:21;16.20;1.00
21216;DHT22;10765;50.954;5.322;2023-07-13T04:52:49;16.20;1.00
21216;DHT22;10765;50.954;5.322;2023-07-13T04:55:16;16.20;99.90
21216;DHT22;10765;50.954;5.322;2023-07-13T04:57:43;16.20;99.90
21216;DHT22;10765;50.954;5.322;2023-07-13T05:00:11;16.30;1.00
21216;DHT22;10765;50.954;5.322;2023-07-13T05:02:39;16.40;99.90
21216;DHT22;10765;50.954;5.322;2023-07-13T05:05:08;16.40;99.90
21216;DHT22;10765;50.954;5.322;2023-07-13T05:07:35;16.40;99.90
21216;DHT22;10765;50.954;5.322;2023-07-13T05:10:03;16.40;99.90
21216;DHT22;10765;50.954;5.322;2023-07-13T05:12:30;16.40;99.90
21216;DHT22;10765;50.954;5.322;2023-07-13T05:14:57;16.40;99.90
21216;DHT22;10765;50.954;5.322;2023-07-13T05:17:24;16.40;1.00
21216;DHT22;10765;50.954;5.322;2023-07-13T05:19:51;16.20;1.00
21216;DHT22;10765;50.954;5.322;2023-07-13T05:22:19;16.40;1.00
21216;DHT22;10765;50.954;5.322;2023-07-13T05:24:46;16.50;1.00
21216;DHT22;10765;50.954;5.322;2023-07-13T05:27:13;16.60;99.90
21216;DHT22;10765;50.954;5.322;2023-07-13T05:29:40;16.50;99.90
21216;DHT22;10765;50.954;5.322;2023-07-13T05:32:07;16.60;99.90
21216;DHT22;10765;50.954;5.322;2023-07-13T05:34:34;16.80;99.90
21216;DHT22;10765;50.954;5.322;2023-07-13T05:37:01;17.10;1.00
21216;DHT22;10765;50.954;5.322;2023-07-13T05:39:30;17.20;1.00
21216;DHT22;10765;50.954;5.322;2023-07-13T05:41:56;17.20;1.00
21216;DHT22;10765;50.954;5.322;2023-07-13T05:44:23;17.20;1.00
21216;DHT22;10765;50.954;5.322;2023-07-13T05:46:50;17.30;1.00
21216;DHT22;10765;50.954;5.322;2023-07-13T05:49:17;17.20;1.00
21216;DHT22;10765;50.954;5.322;2023-07-13T05:51:44;17.10;1.00
21216;DHT22;10765;50.954;5.322;2023-07-13T05:54:11;17.10;1.00
21216;DHT22;10765;50.954;5.322;2023-07-13T05:56:39;17.10;1.00
21216;DHT22;10765;50.954;5.322;2023-07-13T05:59:06;17.20;1.00
21216;DHT22;10765;50.954;5.322;2023-07-13T06:01:33;17.30;1.00
21216;DHT22;10765;50.954;5.322;2023-07-13T06:04:00;17.40;1.00
21216;DHT22;10765;50.954;5.322;2023-07-13T06:06:27;17.50;1.00
21216;DHT22;10765;50.954;5.322;2023-07-13T06:08:54;17.50;1.00
21216;DHT22;10765;50.954;5.322;2023-07-13T06:11:23;17.50;1.00
21216;DHT22;10765;50.954;5.322;2023-07-13T06:13:52;17.50;1.00
21216;DHT22;10765;50.954;5.322;2023-07-13T06:16:20;17.60;1.00
21216;DHT22;10765;50.954;5.322;2023-07-13T06:18:47;17.80;1.00
21216;DHT22;10765;50.954;5.322;2023-07-13T06:21:15;17.80;1.00
21216;DHT22;10765;50.954;5.322;2023-07-13T06:23:42;17.80;1.00
21216;DHT22;10765;50.954;5.322;2023-07-13T06:26:10;17.70;1.00
21216;DHT22;10765;50.954;5.322;2023-07-13T06:28:37;17.80;1.00
21216;DHT22;10765;50.954;5.322;2023-07-13T06:31:08;18.00;1.00
21216;DHT22;10765;50.954;5.322;2023-07-13T06:33:35;18.00;1.00
21216;DHT22;10765;50.954;5.322;2023-07-13T06:36:04;18.10;1.00
21216;DHT22;10765;50.954;5.322;2023-07-13T06:38:31;18.00;99.90
21216;DHT22;10765;50.954;5.322;2023-07-13T06:40:58;18.20;99.90
21216;DHT22;10765;50.954;5.322;2023-07-13T06:43:25;18.30;99.90
21216;DHT22;10765;50.954;5.322;2023-07-13T06:45:55;18.40;99.90
21216;DHT22;10765;50.954;5.322;2023-07-13T06:48:23;18.20;99.90
21216;DHT22;10765;50.954;5.322;2023-07-13T06:50:51;18.30;99.90
21216;DHT22;10765;50.954;5.322;2023-07-13T06:53:19;18.40;99.90
21216;DHT22;10765;50.954;5.322;2023-07-13T06:55:47;18.70;99.90
21216;DHT22;10765;50.954;5.322;2023-07-13T06:58:16;18.90;99.90
21216;DHT22;10765;50.954;5.322;2023-07-13T07:00:43;19.10;99.90
21216;DHT22;10765;50.954;5.322;2023-07-13T07:03:10;19.30;91.60
21216;DHT22;10765;50.954;5.322;2023-07-13T07:05:38;19.50;40.90
21216;DHT22;10765;50.954;5.322;2023-07-13T07:08:05;19.70;1.00
21216;DHT22;10765;50.954;5.322;2023-07-13T07:10:33;19.60;1.00
21216;DHT22;10765;50.954;5.322;2023-07-13T07:13:00;19.50;1.00
21216;DHT22;10765;50.954;5.322;2023-07-13T07:15:27;19.40;23.30
21216;DHT22;10765;50.954;5.322;2023-07-13T07:17:54;19.30;1.00
21216;DHT22;10765;50.954;5.322;2023-07-13T07:20:21;19.00;42.50
21216;DHT22;10765;50.954;5.322;2023-07-13T07:22:50;19.00;99.90
21216;DHT22;10765;50.954;5.322;2023-07-13T07:25:17;19.20;67.00
21216;DHT22;10765;50.954;5.322;2023-07-13T07:27:44;19.30;28.20
21216;DHT22;10765;50.954;5.322;2023-07-13T07:30:11;19.50;1.00
21216;DHT22;10765;50.954;5.322;2023-07-13T07:32:38;19.60;1.00
21216;DHT22;10765;50.954;5.322;2023-07-13T07:35:06;19.50;1.00
21216;DHT22;10765;50.954;5.322;2023-07-13T07:37:33;19.90;1.00
21216;DHT22;10765;50.954;5.322;2023-07-13T07:40:01;20.00;1.00
21216;DHT22;10765;50.954;5.322;2023-07-13T07:42:28;19.80;1.00
21216;DHT22;10765;50.954;5.322;2023-07-13T07:44:55;19.90;1.00
21216;DHT22;10765;50.954;5.322;2023-07-13T07:47:22;19.80;1.00
21216;DHT22;10765;50.954;5.322;2023-07-13T07:49:50;19.70;1.00
21216;DHT22;10765;50.954;5.322;2023-07-13T07:52:16;19.70;1.00
21216;DHT22;10765;50.954;5.322;2023-07-13T07:54:43;20.10;1.00
21216;DHT22;10765;50.954;5.322;2023-07-13T07:57:12;20.40;1.00
21216;DHT22;10765;50.954;5.322;2023-07-13T07:59:38;20.90;1.00
21216;DHT22;10765;50.954;5.322;2023-07-13T08:02:08;20.70;1.00
21216;DHT22;10765;50.954;5.322;2023-07-13T08:04:35;21.00;1.00
21216;DHT22;10765;50.954;5.322;2023-07-13T08:07:02;21.50;1.00
21216;DHT22;10765;50.954;5.322;2023-07-13T08:09:29;21.90;1.00
21216;DHT22;10765;50.954;5.322;2023-07-13T08:11:56;21.90;1.00
21216;DHT22;10765;50.954;5.322;2023-07-13T08:14:24;22.30;1.00
21216;DHT22;10765;50.954;5.322;2023-07-13T08:16:51;22.80;1.00
21216;DHT22;10765;50.954;5.322;2023-07-13T08:19:19;22.40;1.00
21216;DHT22;10765;50.954;5.322;2023-07-13T08:21:46;22.10;1.00
21216;DHT22;10765;50.954;5.322;2023-07-13T08:24:14;22.00;1.00
21216;DHT22;10765;50.954;5.322;2023-07-13T08:26:44;22.30;1.00
21216;DHT22;10765;50.954;5.322;2023-07-13T08:29:11;21.90;1.00
21216;DHT22;10765;50.954;5.322;2023-07-13T08:31:39;22.00;1.00
21216;DHT22;10765;50.954;5.322;2023-07-13T08:34:06;21.90;1.00
21216;DHT22;10765;50.954;5.322;2023-07-13T08:36:33;22.30;1.00
21216;DHT22;10765;50.954;5.322;2023-07-13T08:38:59;22.40;1.00
21216;DHT22;10765;50.954;5.322;2023-07-13T08:41:27;22.80;1.00
21216;DHT22;10765;50.954;5.322;2023-07-13T08:43:58;23.40;1.00
21216;DHT22;10765;50.954;5.322;2023-07-13T08:46:29;24.30;1.00
21216;DHT22;10765;50.954;5.322;2023-07-13T08:49:03;24.00;1.00
21216;DHT22;10765;50.954;5.322;2023-07-13T08:51:37;24.20;1.00
21216;DHT22;10765;50.954;5.322;2023-07-13T08:54:20;24.50;1.00
21216;DHT22;10765;50.954;5.322;2023-07-13T08:56:50;25.10;1.00
21216;DHT22;10765;50.954;5.322;2023-07-13T08:59:27;25.00;1.00
21216;DHT22;10765;50.954;5.322;2023-07-13T09:02:23;25.10;99.90
21216;DHT22;10765;50.954;5.322;2023-07-13T09:04:58;25.20;99.90
21216;DHT22;10765;50.954;5.322;2023-07-13T09:07:39;25.90;99.90
21216;DHT22;10765;50.954;5.322;2023-07-13T09:10:14;27.10;99.90
21216;DHT22;10765;50.954;5.322;2023-07-13T09:12:50;26.20;99.90
21216;DHT22;10765;50.954;5.322;2023-07-13T09:15:26;25.60;99.90
21216;DHT22;10765;50.954;5.322;2023-07-13T09:17:59;26.40;99.90
21216;DHT22;10765;50.954;5.322;2023-07-13T09:20:32;27.70;99.90
21216;DHT22;10765;50.954;5.322;2023-07-13T09:23:03;28.30;99.90
21216;DHT22;10765;50.954;5.322;2023-07-13T09:25:33;26.80;99.90
21216;DHT22;10765;50.954;5.322;2023-07-13T09:28:03;27.10;99.90
21216;DHT22;10765;50.954;5.322;2023-07-13T09:30:38;29.30;99.90
21216;DHT22;10765;50.954;5.322;2023-07-13T09:33:07;28.90;99.90
21216;DHT22;10765;50.954;5.322;2023-07-13T09:35:37;27.40;99.90
21216;DHT22;10765;50.954;5.322;2023-07-13T09:38:11;26.80;99.90
21216;DHT22;10765;50.954;5.322;2023-07-13T09:40:59;25.40;99.90
21216;DHT22;10765;50.954;5.322;2023-07-13T09:43:27;25.00;99.90
21216;DHT22;10765;50.954;5.322;2023-07-13T09:45:57;26.20;99.90
21216;DHT22;10765;50.954;5.322;2023-07-13T09:48:25;25.80;99.90
21216;DHT22;10765;50.954;5.322;2023-07-13T09:50:55;24.80;99.90
21216;DHT22;10765;50.954;5.322;2023-07-13T09:53:23;24.70;99.90
21216;DHT22;10765;50.954;5.322;2023-07-13T09:55:50;25.30;99.90
21216;DHT22;10765;50.954;5.322;2023-07-13T09:58:19;26.80;99.90
21216;DHT22;10765;50.954;5.322;2023-07-13T10:00:55;28.00;99.90
21216;DHT22;10765;50.954;5.322;2023-07-13T10:03:24;29.60;99.90
21216;DHT22;10765;50.954;5.322;2023-07-13T10:05:52;31.70;99.90
21216;DHT22;10765;50.954;5.322;2023-07-13T10:08:26;32.60;99.90
21216;DHT22;10765;50.954;5.322;2023-07-13T10:10:58;31.40;99.90
21216;DHT22;10765;50.954;5.322;2023-07-13T10:13:31;30.00;99.90
21216;DHT22;10765;50.954;5.322;2023-07-13T10:16:00;31.70;99.90
21216;DHT22;10765;50.954;5.322;2023-07-13T10:18:29;33.00;99.90
21216;DHT22;10765;50.954;5.322;2023-07-13T10:21:11;32.70;99.90
21216;DHT22;10765;50.954;5.322;2023-07-13T10:23:42;33.80;99.90
21216;DHT22;10765;50.954;5.322;2023-07-13T10:26:14;32.70;99.90
21216;DHT22;10765;50.954;5.322;2023-07-13T10:28:45;31.30;99.90
21216;DHT22;10765;50.954;5.322;2023-07-13T10:31:15;31.80;99.90
21216;DHT22;10765;50.954;5.322;2023-07-13T10:33:42;30.30;99.90
21216;DHT22;10765;50.954;5.322;2023-07-13T10:36:16;30.40;99.90
21216;DHT22;10765;50.954;5.322;2023-07-13T10:38:47;32.80;99.90
21216;DHT22;10765;50.954;5.322;2023-07-13T10:41:18;35.50;99.90
21216;DHT22;10765;50.954;5.322;2023-07-13T10:43:48;36.50;99.90
21216;DHT22;10765;50.954;5.322;2023-07-13T10:46:19;37.20;99.90
21216;DHT22;10765;50.954;5.322;2023-07-13T10:48:48;34.70;99.90
21216;DHT22;10765;50.954;5.322;2023-07-13T10:51:18;31.00;99.90
21216;DHT22;10765;50.954;5.322;2023-07-13T10:54:10;28.10;99.90
21216;DHT22;10765;50.954;5.322;2023-07-13T10:56:39;26.80;99.90
21216;DHT22;10765;50.954;5.322;2023-07-13T10:59:11;26.10;99.90
21216;DHT22;10765;50.954;5.322;2023-07-13T11:01:46;29.60;99.90
21216;DHT22;10765;50.954;5.322;2023-07-13T11:04:15;31.60;99.90
21216;DHT22;10765;50.954;5.322;2023-07-13T11:06:43;32.60;99.90
21216;DHT22;10765;50.954;5.322;2023-07-13T11:09:32;31.90;99.90
21216;DHT22;10765;50.954;5.322;2023-07-13T11:12:01;31.10;99.90
21216;DHT22;10765;50.954;5.322;2023-07-13T11:14:31;29.40;99.90
21216;DHT22;10765;50.954;5.322;2023-07-13T11:17:24;30.80;99.90
21216;DHT22;10765;50.954;5.322;2023-07-13T11:19:52;31.40;99.90
21216;DHT22;10765;50.954;5.322;2023-07-13T11:22:24;28.80;99.90
21216;DHT22;10765;50.954;5.322;2023-07-13T11:24:58;28.90;99.90
21216;DHT22;10765;50.954;5.322;2023-07-13T11:27:36;31.20;99.90
21216;DHT22;10765;50.954;5.322;2023-07-13T11:30:31;30.50;99.90
21216;DHT22;10765;50.954;5.322;2023-07-13T11:33:11;28.30;99.90
21216;DHT22;10765;50.954;5.322;2023-07-13T11:35:45;28.70;99.90
21216;DHT22;10765;50.954;5.322;2023-07-13T11:38:16;28.70;99.90
21216;DHT22;10765;50.954;5.322;2023-07-13T11:40:46;30.90;99.90
21216;DHT22;10765;50.954;5.322;2023-07-13T11:43:15;33.40;99.90
21216;DHT22;10765;50.954;5.322;2023-07-13T11:45:43;34.90;99.90
21216;DHT22;10765;50.954;5.322;2023-07-13T11:48:22;36.40;99.90
21216;DHT22;10765;50.954;5.322;2023-07-13T11:50:51;35.90;99.90
21216;DHT22;10765;50.954;5.322;2023-07-13T11:53:20;33.50;99.90
21216;DHT22;10765;50.954;5.322;2023-07-13T11:55:48;30.60;99.90
21216;DHT22;10765;50.954;5.322;2023-07-13T11:58:20;30.00;99.90
21216;DHT22;10765;50.954;5.322;2023-07-13T12:00:50;29.90;99.90
21216;DHT22;10765;50.954;5.322;2023-07-13T12:03:21;31.00;99.90
21216;DHT22;10765;50.954;5.322;2023-07-13T12:06:00;28.60;99.90
21216;DHT22;10765;50.954;5.322;2023-07-13T12:08:28;29.40;99.90
21216;DHT22;10765;50.954;5.322;2023-07-13T12:11:04;29.10;99.90
21216;DHT22;10765;50.954;5.322;2023-07-13T12:13:36;27.30;99.90
21216;DHT22;10765;50.954;5.322;2023-07-13T12:16:21;26.50;99.90
21216;DHT22;10765;50.954;5.322;2023-07-13T12:18:52;26.80;99.90
21216;DHT22;10765;50.954;5.322;2023-07-13T12:21:23;27.20;99.90
21216;DHT22;10765;50.954;5.322;2023-07-13T12:23:51;28.30;99.90
21216;DHT22;10765;50.954;5.322;2023-07-13T12:26:20;30.80;99.90
21216;DHT22;10765;50.954;5.322;2023-07-13T12:28:49;31.60;99.90
21216;DHT22;10765;50.954;5.322;2023-07-13T12:31:34;33.20;99.90
21216;DHT22;10765;50.954;5.322;2023-07-13T12:34:05;30.70;99.90
21216;DHT22;10765;50.954;5.322;2023-07-13T12:36:34;31.70;99.90
21216;DHT22;10765;50.954;5.322;2023-07-13T12:39:11;31.80;99.90
21216;DHT22;10765;50.954;5.322;2023-07-13T12:41:41;30.60;99.90
21216;DHT22;10765;50.954;5.322;2023-07-13T12:44:11;29.00;99.90
21216;DHT22;10765;50.954;5.322;2023-07-13T12:46:39;27.70;99.90
21216;DHT22;10765;50.954;5.322;2023-07-13T12:49:07;26.60;99.90
21216;DHT22;10765;50.954;5.322;2023-07-13T12:51:35;26.40;99.90
21216;DHT22;10765;50.954;5.322;2023-07-13T12:54:12;26.40;99.90
21216;DHT22;10765;50.954;5.322;2023-07-13T12:56:41;26.00;99.90
21216;DHT22;10765;50.954;5.322;2023-07-13T12:59:16;26.00;99.90
21216;DHT22;10765;50.954;5.322;2023-07-13T13:01:45;25.70;99.90
21216;DHT22;10765;50.954;5.322;2023-07-13T13:04:12;25.10;1.00
21216;DHT22;10765;50.954;5.322;2023-07-13T13:06:40;24.90;1.00
21216;DHT22;10765;50.954;5.322;2023-07-13T13:09:12;24.70;1.00
21216;DHT22;10765;50.954;5.322;2023-07-13T13:11:41;24.20;1.00
21216;DHT22;10765;50.954;5.322;2023-07-13T13:14:08;24.00;1.00
21216;DHT22;10765;50.954;5.322;2023-07-13T13:16:47;23.70;1.00
21216;DHT22;10765;50.954;5.322;2023-07-13T13:19:17;23.30;1.00
21216;DHT22;10765;50.954;5.322;2023-07-13T13:21:46;23.30;1.00
21216;DHT22;10765;50.954;5.322;2023-07-13T13:24:14;23.20;1.00
21216;DHT22;10765;50.954;5.322;2023-07-13T13:26:44;23.10;1.00
21216;DHT22;10765;50.954;5.322;2023-07-13T13:29:16;22.40;1.00
21216;DHT22;10765;50.954;5.322;2023-07-13T13:31:44;21.50;1.00
21216;DHT22;10765;50.954;5.322;2023-07-13T13:34:12;21.20;1.00
21216;DHT22;10765;50.954;5.322;2023-07-13T13:36:40;20.70;1.00
21216;DHT22;10765;50.954;5.322;2023-07-13T13:39:18;20.40;1.00
21216;DHT22;10765;50.954;5.322;2023-07-13T13:41:48;20.40;1.00
21216;DHT22;10765;50.954;5.322;2023-07-13T13:44:16;20.40;1.00
21216;DHT22;10765;50.954;5.322;2023-07-13T13:46:44;20.60;1.00
21216;DHT22;10765;50.954;5.322;2023-07-13T13:49:14;20.40;1.00
21216;DHT22;10765;50.954;5.322;2023-07-13T13:51:41;20.60;1.00
21216;DHT22;10765;50.954;5.322;2023-07-13T13:54:10;20.40;1.00
21216;DHT22;10765;50.954;5.322;2023-07-13T13:56:37;20.10;1.00
21216;DHT22;10765;50.954;5.322;2023-07-13T13:59:06;20.10;1.00
21216;DHT22;10765;50.954;5.322;2023-07-13T14:01:34;20.10;1.00
21216;DHT22;10765;50.954;5.322;2023-07-13T14:04:01;19.90;1.00
21216;DHT22;10765;50.954;5.322;2023-07-13T14:06:29;19.80;1.00
21216;DHT22;10765;50.954;5.322;2023-07-13T14:08:56;20.00;1.00
21216;DHT22;10765;50.954;5.322;2023-07-13T14:11:23;20.20;1.00
21216;DHT22;10765;50.954;5.322;2023-07-13T14:13:53;20.40;1.00
21216;DHT22;10765;50.954;5.322;2023-07-13T14:16:32;20.70;1.00
21216;DHT22;10765;50.954;5.322;2023-07-13T14:19:00;21.00;1.00
21216;DHT22;10765;50.954;5.322;2023-07-13T14:21:28;21.40;1.00
21216;DHT22;10765;50.954;5.322;2023-07-13T14:23:55;21.90;1.00
21216;DHT22;10765;50.954;5.322;2023-07-13T14:26:25;22.00;1.00
21216;DHT22;10765;50.954;5.322;2023-07-13T14:28:54;22.20;1.00
21216;DHT22;10765;50.954;5.322;2023-07-13T14:31:24;22.20;1.00
21216;DHT22;10765;50.954;5.322;2023-07-13T14:33:51;22.40;1.00
21216;DHT22;10765;50.954;5.322;2023-07-13T14:36:25;22.20;1.00
21216;DHT22;10765;50.954;5.322;2023-07-13T14:38:53;22.00;1.00
21216;DHT22;10765;50.954;5.322;2023-07-13T14:41:20;21.80;1.00
21216;DHT22;10765;50.954;5.322;2023-07-13T14:43:47;21.80;1.00
21216;DHT22;10765;50.954;5.322;2023-07-13T14:46:28;22.10;1.00
21216;DHT22;10765;50.954;5.322;2023-07-13T14:49:01;21.80;1.00
21216;DHT22;10765;50.954;5.322;2023-07-13T14:51:28;21.70;1.00
21216;DHT22;10765;50.954;5.322;2023-07-13T14:53:55;22.10;1.00
21216;DHT22;10765;50.954;5.322;2023-07-13T14:56:22;22.50;1.00
21216;DHT22;10765;50.954;5.322;2023-07-13T14:58:49;23.20;1.00
21216;DHT22;10765;50.954;5.322;2023-07-13T15:01:16;23.60;1.00
21216;DHT22;10765;50.954;5.322;2023-07-13T15:03:46;23.60;1.00
21216;DHT22;10765;50.954;5.322;2023-07-13T15:06:14;23.80;1.00
21216;DHT22;10765;50.954;5.322;2023-07-13T15:08:41;23.70;1.00
21216;DHT22;10765;50.954;5.322;2023-07-13T15:11:08;23.40;1.00
21216;DHT22;10765;50.954;5.322;2023-07-13T15:13:37;23.60;1.00
21216;DHT22;10765;50.954;5.322;2023-07-13T15:16:07;23.70;1.00
21216;DHT22;10765;50.954;5.322;2023-07-13T15:18:37;23.90;1.00
21216;DHT22;10765;50.954;5.322;2023-07-13T15:21:09;24.20;1.00
21216;DHT22;10765;50.954;5.322;2023-07-13T15:23:39;24.30;1.00
21216;DHT22;10765;50.954;5.322;2023-07-13T15:26:10;24.10;1.00
21216;DHT22;10765;50.954;5.322;2023-07-13T15:28:38;24.20;1.00
21216;DHT22;10765;50.954;5.322;2023-07-13T15:31:17;24.20;1.00
21216;DHT22;10765;50.954;5.322;2023-07-13T15:33:44;24.20;1.00
21216;DHT22;10765;50.954;5.322;2023-07-13T15:36:15;24.20;1.00
21216;DHT22;10765;50.954;5.322;2023-07-13T15:38:44;23.90;1.00
21216;DHT22;10765;50.954;5.322;2023-07-13T15:41:17;24.10;1.00
21216;DHT22;10765;50.954;5.322;2023-07-13T15:43:45;23.90;1.00
21216;DHT22;10765;50.954;5.322;2023-07-13T15:46:13;23.80;1.00
21216;DHT22;10765;50.954;5.322;2023-07-13T15:48:40;23.50;1.00
21216;DHT22;10765;50.954;5.322;2023-07-13T15:51:14;23.10;1.00
21216;DHT22;10765;50.954;5.322;2023-07-13T15:53:43;23.00;1.00